sensor_id;sensor_type;location;lat;lon;timestamp;temperature;humidity
19555;DHT22;9924;50.828;6.440;2023-04-06T00:00:19;1.00;99.90
19555;DHT22;9924;50.828;6.440;2023-04-06T00:03:03;1.00;99.90
19555;DHT22;9924;50.828;6.440;2023-04-06T00:05:48;1.00;99.90
19555;DHT22;9924;50.828;6.440;2023-04-06T00:08:32;1.00;99.90
19555;DHT22;9924;50.828;6.440;2023-04-06T00:11:17;1.00;99.90
19555;DHT22;9924;50.828;6.440;2023-04-06T00:14:01;1.10;99.90
19555;DHT22;9924;50.828;6.440;2023-04-06T00:16:46;1.10;99.90
19555;DHT22;9924;50.828;6.440;2023-04-06T00:19:30;1.10;99.90
19555;DHT22;9924;50.828;6.440;2023-04-06T00:22:14;1.00;99.90
19555;DHT22;9924;50.828;6.440;2023-04-06T00:24:59;0.90;99.90
19555;DHT22;9924;50.828;6.440;2023-04-06T00:27:44;1.00;99.90
19555;DHT22;9924;50.828;6.440;2023-04-06T00:30:28;1.10;99.90
19555;DHT22;9924;50.828;6.440;2023-04-06T00:33:12;1.10;99.90
19555;DHT22;9924;50.828;6.440;2023-04-06T00:35:57;1.10;99.90
19555;DHT22;9924;50.828;6.440;2023-04-06T00:38:42;1.10;99.90
19555;DHT22;9924;50.828;6.440;2023-04-06T00:41:26;1.00;99.90
19555;DHT22;9924;50.828;6.440;2023-04-06T00:44:10;1.00;99.90
19555;DHT22;9924;50.828;6.440;2023-04-06T00:46:55;1.00;99.90
19555;DHT22;9924;50.828;6.440;2023-04-06T00:49:39;1.00;99.90
19555;DHT22;9924;50.828;6.440;2023-04-06T00:52:24;1.00;99.90
19555;DHT22;9924;50.828;6.440;2023-04-06T00:55:09;1.00;99.90
19555;DHT22;9924;50.828;6.440;2023-04-06T00:57:53;1.00;99.90
19555;DHT22;9924;50.828;6.440;2023-04-06T01:00:38;1.00;99.90
19555;DHT22;9924;50.828;6.440;2023-04-06T01:03:23;0.90;99.90
19555;DHT22;9924;50.828;6.440;2023-04-06T01:06:07;0.90;99.90
19555;DHT22;9924;50.828;6.440;2023-04-06T01:08:51;0.70;99.90
19555;DHT22;9924;50.828;6.440;2023-04-06T01:11:36;0.60;99.90
19555;DHT22;9924;50.828;6.440;2023-04-06T01:14:20;0.60;99.90
19555;DHT22;9924;50.828;6.440;2023-04-06T01:17:05;0.60;99.90
19555;DHT22;9924;50.828;6.440;2023-04-06T01:19:50;0.60;99.90
19555;DHT22;9924;50.828;6.440;2023-04-06T01:22:37;0.50;99.90
19555;DHT22;9924;50.828;6.440;2023-04-06T01:25:22;0.50;99.90
19555;DHT22;9924;50.828;6.440;2023-04-06T01:28:06;0.60;99.90
19555;DHT22;9924;50.828;6.440;2023-04-06T01:30:51;0.60;99.90
19555;DHT22;9924;50.828;6.440;2023-04-06T01:33:35;0.70;99.90
19555;DHT22;9924;50.828;6.440;2023-04-06T01:36:19;0.80;99.90
19555;DHT22;9924;50.828;6.440;2023-04-06T01:39:04;0.80;99.90
19555;DHT22;9924;50.828;6.440;2023-04-06T01:41:49;0.80;99.90
19555;DHT22;9924;50.828;6.440;2023-04-06T01:44:33;0.70;99.90
19555;DHT22;9924;50.828;6.440;2023-04-06T01:47:17;0.80;99.90
19555;DHT22;9924;50.828;6.440;2023-04-06T01:50:02;0.80;99.90
19555;DHT22;9924;50.828;6.440;2023-04-06T01:52:50;0.80;99.90
19555;DHT22;9924;50.828;6.440;2023-04-06T01:55:35;0.90;99.90
19555;DHT22;9924;50.828;6.440;2023-04-06T01:58:20;0.90;99.90
19555;DHT22;9924;50.828;6.440;2023-04-06T02:01:04;0.90;99.90
19555;DHT22;9924;50.828;6.440;2023-04-06T02:03:49;0.90;99.90
19555;DHT22;9924;50.828;6.440;2023-04-06T02:06:33;0.80;99.90
19555;DHT22;9924;50.828;6.440;2023-04-06T02:09:18;0.80;99.90
19555;DHT22;9924;50.828;6.440;2023-04-06T02:12:02;0.70;99.90
19555;DHT22;9924;50.828;6.440;2023-04-06T02:14:47;0.60;99.90
19555;DHT22;9924;50.828;6.440;2023-04-06T02:17:31;0.60;99.90
19555;DHT22;9924;50.828;6.440;2023-04-06T02:20:16;0.50;99.90
19555;DHT22;9924;50.828;6.440;2023-04-06T02:23:01;0.50;99.90
19555;DHT22;9924;50.828;6.440;2023-04-06T02:25:45;0.40;99.90
19555;DHT22;9924;50.828;6.440;2023-04-06T02:28:30;0.40;99.90
19555;DHT22;9924;50.828;6.440;2023-04-06T02:31:14;0.30;99.90
19555;DHT22;9924;50.828;6.440;2023-04-06T02:33:59;0.30;99.90
19555;DHT22;9924;50.828;6.440;2023-04-06T02:36:44;0.30;99.90
19555;DHT22;9924;50.828;6.440;2023-04-06T02:39:29;0.30;99.90
19555;DHT22;9924;50.828;6.440;2023-04-06T02:42:14;0.30;99.90
19555;DHT22;9924;50.828;6.440;2023-04-06T02:44:59;0.30;99.90
19555;DHT22;9924;50.828;6.440;2023-04-06T02:47:44;0.20;99.90
19555;DHT22;9924;50.828;6.440;2023-04-06T02:50:29;0.20;99.90
19555;DHT22;9924;50.828;6.440;2023-04-06T02:53:13;0.20;99.90
19555;DHT22;9924;50.828;6.440;2023-04-06T02:55:58;0.10;99.90
19555;DHT22;9924;50.828;6.440;2023-04-06T02:58:42;0.10;99.90
19555;DHT22;9924;50.828;6.440;2023-04-06T03:01:27;0.20;99.90
19555;DHT22;9924;50.828;6.440;2023-04-06T03:04:11;0.20;99.90
19555;DHT22;9924;50.828;6.440;2023-04-06T03:06:56;0.20;99.90
19555;DHT22;9924;50.828;6.440;2023-04-06T03:09:40;0.20;99.90
19555;DHT22;9924;50.828;6.440;2023-04-06T03:12:24;0.10;99.90
19555;DHT22;9924;50.828;6.440;2023-04-06T03:15:09;0.10;99.90
19555;DHT22;9924;50.828;6.440;2023-04-06T03:17:54;0.10;99.90
19555;DHT22;9924;50.828;6.440;2023-04-06T03:20:38;0.10;99.90
19555;DHT22;9924;50.828;6.440;2023-04-06T03:23:23;0.10;99.90
19555;DHT22;9924;50.828;6.440;2023-04-06T03:26:07;0.00;99.90
19555;DHT22;9924;50.828;6.440;2023-04-06T03:28:52;-0.10;99.90
19555;DHT22;9924;50.828;6.440;2023-04-06T03:31:36;-0.10;99.90
19555;DHT22;9924;50.828;6.440;2023-04-06T03:34:21;-0.10;99.90
19555;DHT22;9924;50.828;6.440;2023-04-06T03:37:06;-0.20;99.90
19555;DHT22;9924;50.828;6.440;2023-04-06T03:39:51;-0.20;99.90
19555;DHT22;9924;50.828;6.440;2023-04-06T03:42:36;-0.20;99.90
19555;DHT22;9924;50.828;6.440;2023-04-06T03:45:20;-0.20;99.90
19555;DHT22;9924;50.828;6.440;2023-04-06T03:48:05;-0.20;99.90
19555;DHT22;9924;50.828;6.440;2023-04-06T03:50:50;-0.20;99.90
19555;DHT22;9924;50.828;6.440;2023-04-06T03:53:34;-0.20;99.90
19555;DHT22;9924;50.828;6.440;2023-04-06T03:56:18;-0.30;99.90
19555;DHT22;9924;50.828;6.440;2023-04-06T03:59:03;-0.30;99.90
19555;DHT22;9924;50.828;6.440;2023-04-06T04:01:47;-0.30;99.90
19555;DHT22;9924;50.828;6.440;2023-04-06T04:04:32;-0.30;99.90
19555;DHT22;9924;50.828;6.440;2023-04-06T04:07:16;-0.30;99.90
19555;DHT22;9924;50.828;6.440;2023-04-06T04:10:00;-0.30;99.90
19555;DHT22;9924;50.828;6.440;2023-04-06T04:12:45;-0.30;99.90
19555;DHT22;9924;50.828;6.440;2023-04-06T04:15:29;-0.30;99.90
19555;DHT22;9924;50.828;6.440;2023-04-06T04:18:14;-0.30;99.90
19555;DHT22;9924;50.828;6.440;2023-04-06T04:20:58;-0.40;99.90
19555;DHT22;9924;50.828;6.440;2023-04-06T04:23:43;-0.30;99.90
19555;DHT22;9924;50.828;6.440;2023-04-06T04:26:27;-0.30;99.90
19555;DHT22;9924;50.828;6.440;2023-04-06T04:29:11;-0.20;99.90
19555;DHT22;9924;50.828;6.440;2023-04-06T04:31:56;-0.10;99.90
19555;DHT22;9924;50.828;6.440;2023-04-06T04:34:40;-0.10;99.90
19555;DHT22;9924;50.828;6.440;2023-04-06T04:37:24;-0.10;99.90
19555;DHT22;9924;50.828;6.440;2023-04-06T04:40:10;-0.10;99.90
19555;DHT22;9924;50.828;6.440;2023-04-06T04:42:55;-0.10;99.90
19555;DHT22;9924;50.828;6.440;2023-04-06T04:45:39;0.00;99.90
19555;DHT22;9924;50.828;6.440;2023-04-06T04:48:23;0.00;99.90
19555;DHT22;9924;50.828;6.440;2023-04-06T04:51:08;0.10;99.90
19555;DHT22;9924;50.828;6.440;2023-04-06T04:53:52;0.20;99.90
19555;DHT22;9924;50.828;6.440;2023-04-06T04:56:37;0.20;99.90
19555;DHT22;9924;50.828;6.440;2023-04-06T04:59:21;0.30;99.90
19555;DHT22;9924;50.828;6.440;2023-04-06T05:02:05;0.30;99.90
19555;DHT22;9924;50.828;6.440;2023-04-06T05:04:49;0.40;99.90
19555;DHT22;9924;50.828;6.440;2023-04-06T05:07:34;0.40;99.90
19555;DHT22;9924;50.828;6.440;2023-04-06T05:10:19;0.50;99.90
19555;DHT22;9924;50.828;6.440;2023-04-06T05:13:03;0.60;99.90
19555;DHT22;9924;50.828;6.440;2023-04-06T05:15:48;0.60;99.90
19555;DHT22;9924;50.828;6.440;2023-04-06T05:18:33;0.70;99.90
19555;DHT22;9924;50.828;6.440;2023-04-06T05:21:18;0.80;99.90
19555;DHT22;9924;50.828;6.440;2023-04-06T05:24:03;0.90;99.90
19555;DHT22;9924;50.828;6.440;2023-04-06T05:26:48;1.00;99.90
19555;DHT22;9924;50.828;6.440;2023-04-06T05:29:33;1.10;99.90
19555;DHT22;9924;50.828;6.440;2023-04-06T05:32:18;1.20;99.90
19555;DHT22;9924;50.828;6.440;2023-04-06T05:35:06;1.30;99.90
19555;DHT22;9924;50.828;6.440;2023-04-06T05:37:50;1.40;99.90
19555;DHT22;9924;50.828;6.440;2023-04-06T05:40:35;1.60;99.90
19555;DHT22;9924;50.828;6.440;2023-04-06T05:43:19;1.70;99.90
19555;DHT22;9924;50.828;6.440;2023-04-06T05:46:04;1.80;99.90
19555;DHT22;9924;50.828;6.440;2023-04-06T05:48:48;2.00;99.90
19555;DHT22;9924;50.828;6.440;2023-04-06T05:51:33;2.30;99.90
19555;DHT22;9924;50.828;6.440;2023-04-06T05:54:17;2.40;99.90
19555;DHT22;9924;50.828;6.440;2023-04-06T05:57:04;2.60;99.90
19555;DHT22;9924;50.828;6.440;2023-04-06T05:59:49;2.70;99.90
19555;DHT22;9924;50.828;6.440;2023-04-06T06:02:33;2.80;99.90
19555;DHT22;9924;50.828;6.440;2023-04-06T06:05:17;3.00;99.90
19555;DHT22;9924;50.828;6.440;2023-04-06T06:08:02;3.10;99.90
19555;DHT22;9924;50.828;6.440;2023-04-06T06:10:46;3.40;99.90
19555;DHT22;9924;50.828;6.440;2023-04-06T06:13:31;3.70;99.90
19555;DHT22;9924;50.828;6.440;2023-04-06T06:16:17;4.00;99.90
19555;DHT22;9924;50.828;6.440;2023-04-06T06:19:02;4.20;99.90
19555;DHT22;9924;50.828;6.440;2023-04-06T06:21:46;4.50;99.90
19555;DHT22;9924;50.828;6.440;2023-04-06T06:24:31;4.60;99.90
19555;DHT22;9924;50.828;6.440;2023-04-06T06:27:15;4.80;99.90
19555;DHT22;9924;50.828;6.440;2023-04-06T06:30:01;4.90;99.90
19555;DHT22;9924;50.828;6.440;2023-04-06T06:32:45;5.00;99.90
19555;DHT22;9924;50.828;6.440;2023-04-06T06:35:30;5.00;99.90
19555;DHT22;9924;50.828;6.440;2023-04-06T06:38:14;5.10;99.90
19555;DHT22;9924;50.828;6.440;2023-04-06T06:40:59;5.20;99.90
19555;DHT22;9924;50.828;6.440;2023-04-06T06:43:44;5.40;99.90
19555;DHT22;9924;50.828;6.440;2023-04-06T06:46:28;5.70;99.90
19555;DHT22;9924;50.828;6.440;2023-04-06T06:49:13;6.10;99.90
19555;DHT22;9924;50.828;6.440;2023-04-06T06:51:58;6.70;99.90
19555;DHT22;9924;50.828;6.440;2023-04-06T06:54:42;7.10;99.90
19555;DHT22;9924;50.828;6.440;2023-04-06T06:57:28;7.60;99.90
19555;DHT22;9924;50.828;6.440;2023-04-06T07:00:14;7.90;99.90
19555;DHT22;9924;50.828;6.440;2023-04-06T07:02:58;8.00;99.90
19555;DHT22;9924;50.828;6.440;2023-04-06T07:05:46;8.20;99.90
19555;DHT22;9924;50.828;6.440;2023-04-06T07:08:37;8.40;99.90
19555;DHT22;9924;50.828;6.440;2023-04-06T07:11:21;8.60;99.90
19555;DHT22;9924;50.828;6.440;2023-04-06T07:14:05;8.80;99.90
19555;DHT22;9924;50.828;6.440;2023-04-06T07:16:50;9.00;99.90
19555;DHT22;9924;50.828;6.440;2023-04-06T07:19:35;9.20;99.90
19555;DHT22;9924;50.828;6.440;2023-04-06T07:22:19;9.40;99.90
19555;DHT22;9924;50.828;6.440;2023-04-06T07:25:03;9.70;99.90
19555;DHT22;9924;50.828;6.440;2023-04-06T07:27:48;9.90;99.90
19555;DHT22;9924;50.828;6.440;2023-04-06T07:30:32;10.00;99.90
19555;DHT22;9924;50.828;6.440;2023-04-06T07:33:17;10.20;99.90
19555;DHT22;9924;50.828;6.440;2023-04-06T07:36:02;10.30;99.90
19555;DHT22;9924;50.828;6.440;2023-04-06T07:38:46;10.30;99.90
19555;DHT22;9924;50.828;6.440;2023-04-06T07:41:31;10.30;99.90
19555;DHT22;9924;50.828;6.440;2023-04-06T07:44:15;10.40;99.90
19555;DHT22;9924;50.828;6.440;2023-04-06T07:46:59;10.50;99.90
19555;DHT22;9924;50.828;6.440;2023-04-06T07:49:44;10.60;99.90
19555;DHT22;9924;50.828;6.440;2023-04-06T07:52:29;10.80;99.90
19555;DHT22;9924;50.828;6.440;2023-04-06T07:55:15;10.90;99.90
19555;DHT22;9924;50.828;6.440;2023-04-06T07:58:00;11.20;99.90
19555;DHT22;9924;50.828;6.440;2023-04-06T08:00:45;11.40;99.90
19555;DHT22;9924;50.828;6.440;2023-04-06T08:03:30;11.60;99.90
19555;DHT22;9924;50.828;6.440;2023-04-06T08:06:14;11.80;99.90
19555;DHT22;9924;50.828;6.440;2023-04-06T08:08:58;12.00;99.90
19555;DHT22;9924;50.828;6.440;2023-04-06T08:11:44;12.20;99.90
19555;DHT22;9924;50.828;6.440;2023-04-06T08:14:30;12.20;99.90
19555;DHT22;9924;50.828;6.440;2023-04-06T08:17:14;12.10;99.90
19555;DHT22;9924;50.828;6.440;2023-04-06T08:19:59;12.00;99.90
19555;DHT22;9924;50.828;6.440;2023-04-06T08:22:43;12.00;99.90
19555;DHT22;9924;50.828;6.440;2023-04-06T08:25:28;12.10;99.90
19555;DHT22;9924;50.828;6.440;2023-04-06T08:28:12;12.10;99.90
19555;DHT22;9924;50.828;6.440;2023-04-06T08:30:56;12.20;99.90
19555;DHT22;9924;50.828;6.440;2023-04-06T08:33:41;12.50;99.90
19555;DHT22;9924;50.828;6.440;2023-04-06T08:36:25;12.60;99.90
19555;DHT22;9924;50.828;6.440;2023-04-06T08:39:10;12.70;99.90
19555;DHT22;9924;50.828;6.440;2023-04-06T08:41:55;12.60;99.90
19555;DHT22;9924;50.828;6.440;2023-04-06T08:44:41;12.70;99.90
19555;DHT22;9924;50.828;6.440;2023-04-06T08:47:26;12.80;99.90
19555;DHT22;9924;50.828;6.440;2023-04-06T08:50:10;12.90;99.90
19555;DHT22;9924;50.828;6.440;2023-04-06T08:52:59;12.80;99.90
19555;DHT22;9924;50.828;6.440;2023-04-06T08:55:44;12.80;99.90
19555;DHT22;9924;50.828;6.440;2023-04-06T08:58:37;12.80;99.90
19555;DHT22;9924;50.828;6.440;2023-04-06T09:01:27;13.00;99.90
19555;DHT22;9924;50.828;6.440;2023-04-06T09:04:12;13.10;99.90
19555;DHT22;9924;50.828;6.440;2023-04-06T09:06:57;13.20;99.90
19555;DHT22;9924;50.828;6.440;2023-04-06T09:09:41;13.10;99.90
19555;DHT22;9924;50.828;6.440;2023-04-06T09:12:32;12.90;99.90
19555;DHT22;9924;50.828;6.440;2023-04-06T09:15:21;13.00;99.90
19555;DHT22;9924;50.828;6.440;2023-04-06T09:18:05;13.20;99.90
19555;DHT22;9924;50.828;6.440;2023-04-06T09:21:03;13.20;99.90
19555;DHT22;9924;50.828;6.440;2023-04-06T09:24:01;13.10;99.90
19555;DHT22;9924;50.828;6.440;2023-04-06T09:26:46;13.20;99.90
19555;DHT22;9924;50.828;6.440;2023-04-06T09:29:31;13.20;99.90
19555;DHT22;9924;50.828;6.440;2023-04-06T09:32:17;13.30;99.90
19555;DHT22;9924;50.828;6.440;2023-04-06T09:35:08;13.60;99.90
19555;DHT22;9924;50.828;6.440;2023-04-06T09:37:53;13.70;99.90
19555;DHT22;9924;50.828;6.440;2023-04-06T09:40:50;13.90;99.90
19555;DHT22;9924;50.828;6.440;2023-04-06T09:43:34;14.00;99.90
19555;DHT22;9924;50.828;6.440;2023-04-06T09:46:21;13.90;99.90
19555;DHT22;9924;50.828;6.440;2023-04-06T09:49:08;13.70;99.90
19555;DHT22;9924;50.828;6.440;2023-04-06T09:51:58;13.70;99.90
19555;DHT22;9924;50.828;6.440;2023-04-06T09:54:44;13.70;99.90
19555;DHT22;9924;50.828;6.440;2023-04-06T10:00:25;14.00;99.90
19555;DHT22;9924;50.828;6.440;2023-04-06T10:06:14;14.20;99.90
19555;DHT22;9924;50.828;6.440;2023-04-06T10:08:59;14.00;99.90
19555;DHT22;9924;50.828;6.440;2023-04-06T10:11:46;13.90;99.90
19555;DHT22;9924;50.828;6.440;2023-04-06T10:14:33;13.70;99.90
19555;DHT22;9924;50.828;6.440;2023-04-06T10:17:19;13.50;99.90
19555;DHT22;9924;50.828;6.440;2023-04-06T10:20:09;13.20;99.90
19555;DHT22;9924;50.828;6.440;2023-04-06T10:24:15;13.00;99.90
19555;DHT22;9924;50.828;6.440;2023-04-06T10:26:29;13.10;99.90
19555;DHT22;9924;50.828;6.440;2023-04-06T10:29:14;13.20;99.90
19555;DHT22;9924;50.828;6.440;2023-04-06T10:31:58;13.00;99.90
19555;DHT22;9924;50.828;6.440;2023-04-06T10:34:42;13.10;99.90
19555;DHT22;9924;50.828;6.440;2023-04-06T10:37:27;13.00;99.90
19555;DHT22;9924;50.828;6.440;2023-04-06T10:40:24;13.20;99.90
19555;DHT22;9924;50.828;6.440;2023-04-06T10:43:18;13.30;99.90
19555;DHT22;9924;50.828;6.440;2023-04-06T10:46:04;13.30;99.90
19555;DHT22;9924;50.828;6.440;2023-04-06T10:48:49;13.30;99.90
19555;DHT22;9924;50.828;6.440;2023-04-06T10:51:38;13.30;99.90
19555;DHT22;9924;50.828;6.440;2023-04-06T10:54:24;13.40;99.90
19555;DHT22;9924;50.828;6.440;2023-04-06T10:57:09;13.60;99.90
19555;DHT22;9924;50.828;6.440;2023-04-06T10:59:53;13.70;99.90
19555;DHT22;9924;50.828;6.440;2023-04-06T11:02:38;13.40;99.90
19555;DHT22;9924;50.828;6.440;2023-04-06T11:05:23;13.60;99.90
19555;DHT22;9924;50.828;6.440;2023-04-06T11:08:07;14.00;99.90
19555;DHT22;9924;50.828;6.440;2023-04-06T11:11:03;14.20;99.90
19555;DHT22;9924;50.828;6.440;2023-04-06T11:16:35;13.80;99.90
19555;DHT22;9924;50.828;6.440;2023-04-06T11:19:19;13.70;99.90
19555;DHT22;9924;50.828;6.440;2023-04-06T11:22:07;13.80;99.90
19555;DHT22;9924;50.828;6.440;2023-04-06T11:24:52;14.00;99.90
19555;DHT22;9924;50.828;6.440;2023-04-06T11:27:37;13.80;99.90
19555;DHT22;9924;50.828;6.440;2023-04-06T11:30:22;13.70;99.90
19555;DHT22;9924;50.828;6.440;2023-04-06T11:33:06;13.70;99.90
19555;DHT22;9924;50.828;6.440;2023-04-06T11:35:51;13.70;99.90
19555;DHT22;9924;50.828;6.440;2023-04-06T11:38:39;13.60;99.90
19555;DHT22;9924;50.828;6.440;2023-04-06T11:41:24;13.60;99.90
19555;DHT22;9924;50.828;6.440;2023-04-06T11:44:10;13.80;99.90
19555;DHT22;9924;50.828;6.440;2023-04-06T11:46:57;14.00;99.90
19555;DHT22;9924;50.828;6.440;2023-04-06T11:49:43;13.70;99.90
19555;DHT22;9924;50.828;6.440;2023-04-06T11:52:29;13.10;99.90
19555;DHT22;9924;50.828;6.440;2023-04-06T11:55:16;12.70;99.90
19555;DHT22;9924;50.828;6.440;2023-04-06T11:58:01;12.40;99.90
19555;DHT22;9924;50.828;6.440;2023-04-06T12:00:46;12.20;99.90
19555;DHT22;9924;50.828;6.440;2023-04-06T12:03:31;11.90;99.90
19555;DHT22;9924;50.828;6.440;2023-04-06T12:06:16;11.70;99.90
19555;DHT22;9924;50.828;6.440;2023-04-06T12:09:01;11.50;99.90
19555;DHT22;9924;50.828;6.440;2023-04-06T12:11:46;11.50;99.90
19555;DHT22;9924;50.828;6.440;2023-04-06T12:14:31;11.50;99.90
19555;DHT22;9924;50.828;6.440;2023-04-06T12:17:15;11.30;99.90
19555;DHT22;9924;50.828;6.440;2023-04-06T12:20:03;11.30;99.90
19555;DHT22;9924;50.828;6.440;2023-04-06T12:22:48;11.20;99.90
19555;DHT22;9924;50.828;6.440;2023-04-06T12:25:32;11.30;99.90
19555;DHT22;9924;50.828;6.440;2023-04-06T12:28:17;11.40;99.90
19555;DHT22;9924;50.828;6.440;2023-04-06T12:31:02;11.50;99.90
19555;DHT22;9924;50.828;6.440;2023-04-06T12:33:47;11.50;99.90
19555;DHT22;9924;50.828;6.440;2023-04-06T12:36:32;11.30;99.90
19555;DHT22;9924;50.828;6.440;2023-04-06T12:39:18;11.20;99.90
19555;DHT22;9924;50.828;6.440;2023-04-06T12:42:03;11.10;99.90
19555;DHT22;9924;50.828;6.440;2023-04-06T12:44:48;11.10;99.90
19555;DHT22;9924;50.828;6.440;2023-04-06T12:47:33;11.00;99.90
19555;DHT22;9924;50.828;6.440;2023-04-06T12:50:17;10.70;99.90
19555;DHT22;9924;50.828;6.440;2023-04-06T12:53:02;10.60;99.90
19555;DHT22;9924;50.828;6.440;2023-04-06T12:55:46;10.60;99.90
19555;DHT22;9924;50.828;6.440;2023-04-06T12:58:31;10.60;99.90
19555;DHT22;9924;50.828;6.440;2023-04-06T13:01:18;10.70;99.90
19555;DHT22;9924;50.828;6.440;2023-04-06T13:04:02;10.70;99.90
19555;DHT22;9924;50.828;6.440;2023-04-06T13:06:47;10.80;99.90
19555;DHT22;9924;50.828;6.440;2023-04-06T13:09:31;10.70;99.90
19555;DHT22;9924;50.828;6.440;2023-04-06T13:12:16;10.70;99.90
19555;DHT22;9924;50.828;6.440;2023-04-06T13:15:01;10.70;99.90
19555;DHT22;9924;50.828;6.440;2023-04-06T13:17:45;10.50;99.90
19555;DHT22;9924;50.828;6.440;2023-04-06T13:20:29;10.40;99.90
19555;DHT22;9924;50.828;6.440;2023-04-06T13:23:14;10.20;99.90
19555;DHT22;9924;50.828;6.440;2023-04-06T13:26:03;10.10;99.90
19555;DHT22;9924;50.828;6.440;2023-04-06T13:28:48;10.00;99.90
19555;DHT22;9924;50.828;6.440;2023-04-06T13:31:32;10.00;99.90
19555;DHT22;9924;50.828;6.440;2023-04-06T13:34:16;9.90;99.90
19555;DHT22;9924;50.828;6.440;2023-04-06T13:37:01;10.00;99.90
19555;DHT22;9924;50.828;6.440;2023-04-06T13:39:45;9.90;99.90
19555;DHT22;9924;50.828;6.440;2023-04-06T13:42:30;9.90;99.90
19555;DHT22;9924;50.828;6.440;2023-04-06T13:45:14;9.80;99.90
19555;DHT22;9924;50.828;6.440;2023-04-06T13:47:59;9.70;99.90
19555;DHT22;9924;50.828;6.440;2023-04-06T13:50:45;9.60;99.90
19555;DHT22;9924;50.828;6.440;2023-04-06T13:53:30;9.40;99.90
19555;DHT22;9924;50.828;6.440;2023-04-06T13:56:14;9.30;99.90
19555;DHT22;9924;50.828;6.440;2023-04-06T13:58:59;9.30;99.90
19555;DHT22;9924;50.828;6.440;2023-04-06T14:01:43;9.40;99.90
19555;DHT22;9924;50.828;6.440;2023-04-06T14:04:27;9.40;99.90
19555;DHT22;9924;50.828;6.440;2023-04-06T14:07:12;9.40;99.90
19555;DHT22;9924;50.828;6.440;2023-04-06T14:09:56;9.50;99.90
19555;DHT22;9924;50.828;6.440;2023-04-06T14:12:42;9.60;99.90
19555;DHT22;9924;50.828;6.440;2023-04-06T14:15:26;9.70;99.90
19555;DHT22;9924;50.828;6.440;2023-04-06T14:18:13;9.90;99.90
19555;DHT22;9924;50.828;6.440;2023-04-06T14:20:57;9.90;99.90
19555;DHT22;9924;50.828;6.440;2023-04-06T14:23:42;9.90;99.90
19555;DHT22;9924;50.828;6.440;2023-04-06T14:26:27;9.80;99.90
19555;DHT22;9924;50.828;6.440;2023-04-06T14:29:11;9.90;99.90
19555;DHT22;9924;50.828;6.440;2023-04-06T14:31:56;9.90;99.90
19555;DHT22;9924;50.828;6.440;2023-04-06T14:34:43;9.80;99.90
19555;DHT22;9924;50.828;6.440;2023-04-06T14:37:28;9.70;99.90
19555;DHT22;9924;50.828;6.440;2023-04-06T14:40:12;9.60;99.90
19555;DHT22;9924;50.828;6.440;2023-04-06T14:42:57;9.50;99.90
19555;DHT22;9924;50.828;6.440;2023-04-06T14:45:41;9.30;99.90
19555;DHT22;9924;50.828;6.440;2023-04-06T14:48:25;9.20;99.90
19555;DHT22;9924;50.828;6.440;2023-04-06T14:51:10;9.00;99.90
19555;DHT22;9924;50.828;6.440;2023-04-06T14:53:55;8.90;99.90
19555;DHT22;9924;50.828;6.440;2023-04-06T14:56:39;8.80;99.90
19555;DHT22;9924;50.828;6.440;2023-04-06T14:59:24;8.80;99.90
19555;DHT22;9924;50.828;6.440;2023-04-06T15:02:08;8.70;99.90
19555;DHT22;9924;50.828;6.440;2023-04-06T15:04:52;8.60;99.90
19555;DHT22;9924;50.828;6.440;2023-04-06T15:07:37;8.60;99.90
19555;DHT22;9924;50.828;6.440;2023-04-06T15:10:21;8.50;99.90
19555;DHT22;9924;50.828;6.440;2023-04-06T15:13:05;8.50;99.90
19555;DHT22;9924;50.828;6.440;2023-04-06T15:15:50;8.50;99.90
19555;DHT22;9924;50.828;6.440;2023-04-06T15:18:35;8.50;99.90
19555;DHT22;9924;50.828;6.440;2023-04-06T15:21:19;8.50;99.90
19555;DHT22;9924;50.828;6.440;2023-04-06T15:24:04;8.40;99.90
19555;DHT22;9924;50.828;6.440;2023-04-06T15:26:52;8.40;99.90
19555;DHT22;9924;50.828;6.440;2023-04-06T15:29:37;8.40;99.90
19555;DHT22;9924;50.828;6.440;2023-04-06T15:32:21;8.40;99.90
19555;DHT22;9924;50.828;6.440;2023-04-06T15:35:10;8.50;99.90
19555;DHT22;9924;50.828;6.440;2023-04-06T15:37:55;8.50;99.90
19555;DHT22;9924;50.828;6.440;2023-04-06T15:40:47;8.50;99.90
19555;DHT22;9924;50.828;6.440;2023-04-06T15:43:32;8.50;99.90
19555;DHT22;9924;50.828;6.440;2023-04-06T15:46:17;8.50;99.90
19555;DHT22;9924;50.828;6.440;2023-04-06T15:49:01;8.50;99.90
19555;DHT22;9924;50.828;6.440;2023-04-06T15:51:48;8.40;99.90
19555;DHT22;9924;50.828;6.440;2023-04-06T15:54:33;8.40;99.90
19555;DHT22;9924;50.828;6.440;2023-04-06T15:57:19;8.40;99.90
19555;DHT22;9924;50.828;6.440;2023-04-06T16:00:04;8.50;99.90
19555;DHT22;9924;50.828;6.440;2023-04-06T16:02:49;8.50;99.90
19555;DHT22;9924;50.828;6.440;2023-04-06T16:05:34;8.50;99.90
19555;DHT22;9924;50.828;6.440;2023-04-06T16:08:18;8.50;99.90
19555;DHT22;9924;50.828;6.440;2023-04-06T16:11:03;8.60;99.90
19555;DHT22;9924;50.828;6.440;2023-04-06T16:13:47;8.60;99.90
19555;DHT22;9924;50.828;6.440;2023-04-06T16:16:32;8.50;99.90
19555;DHT22;9924;50.828;6.440;2023-04-06T16:19:16;8.50;99.90
19555;DHT22;9924;50.828;6.440;2023-04-06T16:22:01;8.50;99.90
19555;DHT22;9924;50.828;6.440;2023-04-06T16:24:45;8.50;99.90
19555;DHT22;9924;50.828;6.440;2023-04-06T16:27:30;8.50;99.90
19555;DHT22;9924;50.828;6.440;2023-04-06T16:30:14;8.50;99.90
19555;DHT22;9924;50.828;6.440;2023-04-06T16:32:59;8.40;99.90
19555;DHT22;9924;50.828;6.440;2023-04-06T16:35:44;8.50;99.90
19555;DHT22;9924;50.828;6.440;2023-04-06T16:38:29;8.50;99.90
19555;DHT22;9924;50.828;6.440;2023-04-06T16:41:19;8.40;99.90
19555;DHT22;9924;50.828;6.440;2023-04-06T16:44:04;8.30;99.90
19555;DHT22;9924;50.828;6.440;2023-04-06T16:46:48;8.30;99.90
19555;DHT22;9924;50.828;6.440;2023-04-06T16:49:32;8.20;99.90
19555;DHT22;9924;50.828;6.440;2023-04-06T16:52:17;8.20;99.90
19555;DHT22;9924;50.828;6.440;2023-04-06T16:55:01;8.20;99.90
19555;DHT22;9924;50.828;6.440;2023-04-06T16:57:45;8.10;99.90
19555;DHT22;9924;50.828;6.440;2023-04-06T17:00:32;8.10;99.90
19555;DHT22;9924;50.828;6.440;2023-04-06T17:03:16;8.00;99.90
19555;DHT22;9924;50.828;6.440;2023-04-06T17:06:01;8.00;99.90
19555;DHT22;9924;50.828;6.440;2023-04-06T17:08:46;8.00;99.90
19555;DHT22;9924;50.828;6.440;2023-04-06T17:11:32;8.00;99.90
19555;DHT22;9924;50.828;6.440;2023-04-06T17:14:17;8.00;99.90
19555;DHT22;9924;50.828;6.440;2023-04-06T17:17:02;8.00;99.90
19555;DHT22;9924;50.828;6.440;2023-04-06T17:19:46;8.10;99.90
19555;DHT22;9924;50.828;6.440;2023-04-06T17:22:31;8.10;99.90
19555;DHT22;9924;50.828;6.440;2023-04-06T17:25:16;8.10;99.90
19555;DHT22;9924;50.828;6.440;2023-04-06T17:28:00;8.00;99.90
19555;DHT22;9924;50.828;6.440;2023-04-06T17:30:44;7.90;99.90
19555;DHT22;9924;50.828;6.440;2023-04-06T17:33:29;7.90;99.90
19555;DHT22;9924;50.828;6.440;2023-04-06T17:36:15;7.90;99.90
19555;DHT22;9924;50.828;6.440;2023-04-06T17:38:59;7.80;99.90
19555;DHT22;9924;50.828;6.440;2023-04-06T17:41:45;7.80;99.90
19555;DHT22;9924;50.828;6.440;2023-04-06T17:44:30;7.80;99.90
19555;DHT22;9924;50.828;6.440;2023-04-06T17:47:17;7.80;99.90
19555;DHT22;9924;50.828;6.440;2023-04-06T17:50:01;7.80;99.90
19555;DHT22;9924;50.828;6.440;2023-04-06T17:52:45;7.80;99.90
19555;DHT22;9924;50.828;6.440;2023-04-06T17:55:33;7.80;99.90
19555;DHT22;9924;50.828;6.440;2023-04-06T17:58:17;7.80;99.90